P.t. Monto — VMBF — position and weather

sailwx.info

Track history (hours):
 
Tides and Currents Weather Stations Pressure Air Temp Water Temp Dewpoint Dewpoint Depression Visibility Wind Speed Wind Dir Waves Ship Positions

P.t. Monto

Last reported at 2014-Oct-25 17:30 UTC. Time now 2014-Oct-25 17:39 UTC.
Position S 25°55' E 153°18'.

Length 32 m; draft 3 m.

Type: Tug. MMSI: 503612000.

Date/timePositionNaut miles runAvg speedWind from/ knotsBaromVisibWave heightAir tempDewpointWater temp
2014-Oct-25 17:30S 25°55' E 153°18'9 8.8
2014-Oct-25 16:31S 26°04' E 153°17'43 8.7
2014-Oct-25 11:33S 26°47' E 153°11'7 7.2
2014-Oct-25 10:33S 26°54' E 153°11'8 7.8
2014-Oct-25 09:34S 27°01' E 153°14'7 7.4
2014-Oct-25 08:33S 27°07' E 153°19'8 7.8
2014-Oct-25 07:33S 27°14' E 153°16'10 9.3
2014-Oct-25 06:32S 27°22' E 153°10'7 6.3
2014-Oct-25 05:30S 27°27' E 153°05'0 0.0
2014-Oct-25 04:29S 27°27' E 153°05'0 0.0
2014-Oct-25 03:27S 27°27' E 153°05'  
Track history (hours):
 
Tides and Currents Weather Stations Pressure Air Temp Water Temp Dewpoint Dewpoint Depression Visibility Wind Speed Wind Dir Waves Ship Positions

P.t. Monto

Last reported at 2014-Oct-25 17:30 UTC. Time now 2014-Oct-25 17:39 UTC.
Position S 25°55' E 153°18'.

Length 32 m; draft 3 m.

Type: Tug. MMSI: 503612000.

Date/timePositionNaut miles runAvg speedWind from/ knotsBaromVisibWave heightAir tempDewpointWater temp
2014-Oct-25 17:30S 25°55' E 153°18'9 8.8
2014-Oct-25 16:31S 26°04' E 153°17'43 8.7
2014-Oct-25 11:33S 26°47' E 153°11'7 7.2
2014-Oct-25 10:33S 26°54' E 153°11'8 7.8
2014-Oct-25 09:34S 27°01' E 153°14'7 7.4
2014-Oct-25 08:33S 27°07' E 153°19'8 7.8
2014-Oct-25 07:33S 27°14' E 153°16'10 9.3
2014-Oct-25 06:32S 27°22' E 153°10'7 6.3
2014-Oct-25 05:30S 27°27' E 153°05'0 0.0
2014-Oct-25 04:29S 27°27' E 153°05'0 0.0
2014-Oct-25 03:27S 27°27' E 153°05'  

Dump ship's entire track history